sensor_id;sensor_type;location;lat;lon;timestamp;pressure;altitude;pressure_sealevel;temperature;humidity
79129;BME280;68529;43.286;23.360;2023-05-07T00:00:09;99459.25;;;12.80;62.86
79129;BME280;68529;43.286;23.360;2023-05-07T00:02:36;99456.94;;;12.73;62.58
79129;BME280;68529;43.286;23.360;2023-05-07T00:05:02;99449.94;;;12.72;62.74
79129;BME280;68529;43.286;23.360;2023-05-07T00:07:28;99455.25;;;12.70;62.76
79129;BME280;68529;43.286;23.360;2023-05-07T00:09:53;99444.81;;;12.67;62.75
79129;BME280;68529;43.286;23.360;2023-05-07T00:12:19;99447.72;;;12.61;62.90
79129;BME280;68529;43.286;23.360;2023-05-07T00:14:45;99456.53;;;12.60;63.09
79129;BME280;68529;43.286;23.360;2023-05-07T00:17:11;99446.22;;;12.54;63.40
79129;BME280;68529;43.286;23.360;2023-05-07T00:19:36;99447.84;;;12.58;63.00
79129;BME280;68529;43.286;23.360;2023-05-07T00:22:02;99450.25;;;12.64;63.50
79129;BME280;68529;43.286;23.360;2023-05-07T00:24:27;99446.75;;;12.64;63.19
79129;BME280;68529;43.286;23.360;2023-05-07T00:26:52;99444.03;;;12.65;63.08
79129;BME280;68529;43.286;23.360;2023-05-07T00:29:18;99443.59;;;12.54;63.34
79129;BME280;68529;43.286;23.360;2023-05-07T00:31:43;99443.69;;;12.53;63.44
79129;BME280;68529;43.286;23.360;2023-05-07T00:34:09;99441.91;;;12.53;63.48
79129;BME280;68529;43.286;23.360;2023-05-07T00:36:34;99445.38;;;12.54;63.53
79129;BME280;68529;43.286;23.360;2023-05-07T00:39:00;99436.31;;;12.61;63.49
79129;BME280;68529;43.286;23.360;2023-05-07T00:41:27;99435.47;;;12.60;63.44
79129;BME280;68529;43.286;23.360;2023-05-07T00:43:52;99436.91;;;12.67;63.30
79129;BME280;68529;43.286;23.360;2023-05-07T00:46:20;99436.25;;;12.62;63.40
79129;BME280;68529;43.286;23.360;2023-05-07T00:48:46;99433.50;;;12.65;63.47
79129;BME280;68529;43.286;23.360;2023-05-07T00:51:12;99434.34;;;12.66;63.66
79129;BME280;68529;43.286;23.360;2023-05-07T00:53:38;99435.34;;;12.63;63.41
79129;BME280;68529;43.286;23.360;2023-05-07T00:56:04;99433.25;;;12.71;63.61
79129;BME280;68529;43.286;23.360;2023-05-07T00:58:32;99436.56;;;12.76;63.57
79129;BME280;68529;43.286;23.360;2023-05-07T01:00:57;99431.38;;;12.75;63.36
79129;BME280;68529;43.286;23.360;2023-05-07T01:03:23;99425.91;;;12.79;63.35
79129;BME280;68529;43.286;23.360;2023-05-07T01:05:49;99424.19;;;12.78;63.05
79129;BME280;68529;43.286;23.360;2023-05-07T01:08:16;99423.19;;;12.59;63.80
79129;BME280;68529;43.286;23.360;2023-05-07T01:10:43;99423.63;;;12.49;63.81
79129;BME280;68529;43.286;23.360;2023-05-07T01:13:10;99424.81;;;12.63;63.69
79129;BME280;68529;43.286;23.360;2023-05-07T01:15:37;99428.31;;;12.64;63.45
79129;BME280;68529;43.286;23.360;2023-05-07T01:18:03;99421.19;;;12.66;63.41
79129;BME280;68529;43.286;23.360;2023-05-07T01:20:29;99420.16;;;12.70;63.49
79129;BME280;68529;43.286;23.360;2023-05-07T01:22:57;99417.19;;;12.77;63.35
79129;BME280;68529;43.286;23.360;2023-05-07T01:25:23;99425.78;;;12.82;63.11
79129;BME280;68529;43.286;23.360;2023-05-07T01:27:49;99422.94;;;12.87;63.11
79129;BME280;68529;43.286;23.360;2023-05-07T01:30:15;99416.00;;;12.84;63.00
79129;BME280;68529;43.286;23.360;2023-05-07T01:33:01;99412.59;;;12.82;63.25
79129;BME280;68529;43.286;23.360;2023-05-07T01:35:34;99415.22;;;12.82;63.17
79129;BME280;68529;43.286;23.360;2023-05-07T01:38:01;99404.94;;;12.76;63.37
79129;BME280;68529;43.286;23.360;2023-05-07T01:40:29;99406.66;;;12.77;62.98
79129;BME280;68529;43.286;23.360;2023-05-07T01:42:55;99404.81;;;12.79;63.08
79129;BME280;68529;43.286;23.360;2023-05-07T01:45:21;99399.91;;;12.70;63.06
79129;BME280;68529;43.286;23.360;2023-05-07T01:47:47;99405.44;;;12.64;63.07
79129;BME280;68529;43.286;23.360;2023-05-07T01:50:15;99404.50;;;12.65;63.29
79129;BME280;68529;43.286;23.360;2023-05-07T01:52:42;99396.34;;;12.71;63.53
79129;BME280;68529;43.286;23.360;2023-05-07T01:55:07;99392.00;;;12.70;63.04
79129;BME280;68529;43.286;23.360;2023-05-07T01:57:33;99382.44;;;12.68;63.02
79129;BME280;68529;43.286;23.360;2023-05-07T01:59:58;99382.97;;;12.56;63.25
79129;BME280;68529;43.286;23.360;2023-05-07T02:02:24;99384.72;;;12.55;63.02
79129;BME280;68529;43.286;23.360;2023-05-07T02:04:49;99391.56;;;12.59;63.44
79129;BME280;68529;43.286;23.360;2023-05-07T02:07:15;99388.09;;;12.59;63.04
79129;BME280;68529;43.286;23.360;2023-05-07T02:09:40;99382.25;;;12.51;63.28
79129;BME280;68529;43.286;23.360;2023-05-07T02:12:06;99384.22;;;12.46;63.20
79129;BME280;68529;43.286;23.360;2023-05-07T02:14:31;99387.47;;;12.52;63.40
79129;BME280;68529;43.286;23.360;2023-05-07T02:16:57;99383.00;;;12.54;63.33
79129;BME280;68529;43.286;23.360;2023-05-07T02:19:22;99387.38;;;12.55;63.36
79129;BME280;68529;43.286;23.360;2023-05-07T02:21:48;99380.25;;;12.57;63.27
79129;BME280;68529;43.286;23.360;2023-05-07T02:24:13;99389.00;;;12.58;63.18
79129;BME280;68529;43.286;23.360;2023-05-07T02:26:42;99381.91;;;12.60;63.29
79129;BME280;68529;43.286;23.360;2023-05-07T02:29:07;99374.78;;;12.62;63.05
79129;BME280;68529;43.286;23.360;2023-05-07T02:31:32;99371.31;;;12.61;63.03
79129;BME280;68529;43.286;23.360;2023-05-07T02:33:59;99370.44;;;12.61;63.24
79129;BME280;68529;43.286;23.360;2023-05-07T02:36:25;99374.78;;;12.62;62.88
79129;BME280;68529;43.286;23.360;2023-05-07T02:38:51;99370.75;;;12.53;62.82
79129;BME280;68529;43.286;23.360;2023-05-07T02:41:17;99371.06;;;12.46;63.10
79129;BME280;68529;43.286;23.360;2023-05-07T02:43:42;99371.38;;;12.38;62.93
79129;BME280;68529;43.286;23.360;2023-05-07T02:46:08;99374.44;;;12.27;62.97
79129;BME280;68529;43.286;23.360;2023-05-07T02:48:34;99373.78;;;12.21;63.17
79129;BME280;68529;43.286;23.360;2023-05-07T02:51:00;99369.63;;;12.15;63.30
79129;BME280;68529;43.286;23.360;2023-05-07T02:53:26;99374.66;;;12.21;63.59
79129;BME280;68529;43.286;23.360;2023-05-07T02:55:55;99370.06;;;12.26;63.20
79129;BME280;68529;43.286;23.360;2023-05-07T02:58:21;99377.97;;;12.26;63.11
79129;BME280;68529;43.286;23.360;2023-05-07T03:00:47;99380.69;;;12.25;63.22
79129;BME280;68529;43.286;23.360;2023-05-07T03:03:12;99378.81;;;12.27;63.25
79129;BME280;68529;43.286;23.360;2023-05-07T03:05:38;99387.88;;;12.20;63.02
79129;BME280;68529;43.286;23.360;2023-05-07T03:08:03;99394.75;;;12.24;63.36
79129;BME280;68529;43.286;23.360;2023-05-07T03:10:29;99391.31;;;12.22;63.29
79129;BME280;68529;43.286;23.360;2023-05-07T03:12:55;99388.00;;;12.17;63.37
79129;BME280;68529;43.286;23.360;2023-05-07T03:15:20;99394.19;;;12.16;63.29
79129;BME280;68529;43.286;23.360;2023-05-07T03:17:47;99402.00;;;12.17;63.30
79129;BME280;68529;43.286;23.360;2023-05-07T03:20:12;99400.13;;;12.21;63.28
79129;BME280;68529;43.286;23.360;2023-05-07T03:22:38;99396.63;;;12.20;63.57
79129;BME280;68529;43.286;23.360;2023-05-07T03:25:04;99406.03;;;12.27;63.57
79129;BME280;68529;43.286;23.360;2023-05-07T03:27:29;99414.59;;;12.33;63.13
79129;BME280;68529;43.286;23.360;2023-05-07T03:29:55;99411.00;;;12.35;62.95
79129;BME280;68529;43.286;23.360;2023-05-07T03:32:20;99416.25;;;12.35;62.86
79129;BME280;68529;43.286;23.360;2023-05-07T03:34:46;99415.59;;;12.30;63.06
79129;BME280;68529;43.286;23.360;2023-05-07T03:37:11;99426.13;;;12.30;63.21
79129;BME280;68529;43.286;23.360;2023-05-07T03:39:37;99419.81;;;12.34;63.08
79129;BME280;68529;43.286;23.360;2023-05-07T03:42:02;99419.09;;;12.31;63.11
79129;BME280;68529;43.286;23.360;2023-05-07T03:44:28;99425.06;;;12.34;63.30
79129;BME280;68529;43.286;23.360;2023-05-07T03:46:53;99423.28;;;12.35;62.95
79129;BME280;68529;43.286;23.360;2023-05-07T03:49:19;99425.88;;;12.36;62.94
79129;BME280;68529;43.286;23.360;2023-05-07T03:51:44;99416.94;;;12.40;62.97
79129;BME280;68529;43.286;23.360;2023-05-07T03:54:09;99423.13;;;12.39;62.97
79129;BME280;68529;43.286;23.360;2023-05-07T03:56:35;99424.03;;;12.38;62.97
79129;BME280;68529;43.286;23.360;2023-05-07T03:59:00;99422.16;;;12.42;63.02
79129;BME280;68529;43.286;23.360;2023-05-07T04:01:26;99428.41;;;12.39;62.75
79129;BME280;68529;43.286;23.360;2023-05-07T04:03:52;99424.91;;;12.39;62.88
79129;BME280;68529;43.286;23.360;2023-05-07T04:06:17;99425.66;;;12.42;62.97
79129;BME280;68529;43.286;23.360;2023-05-07T04:08:43;99424.59;;;12.46;62.75
79129;BME280;68529;43.286;23.360;2023-05-07T04:11:08;99428.88;;;12.49;62.69
79129;BME280;68529;43.286;23.360;2023-05-07T04:13:34;99437.47;;;12.54;62.67
79129;BME280;68529;43.286;23.360;2023-05-07T04:16:01;99441.19;;;12.48;62.81
79129;BME280;68529;43.286;23.360;2023-05-07T04:18:27;99435.69;;;12.54;62.75
79129;BME280;68529;43.286;23.360;2023-05-07T04:20:53;99447.84;;;12.58;62.76
79129;BME280;68529;43.286;23.360;2023-05-07T04:23:18;99448.63;;;12.60;62.71
79129;BME280;68529;43.286;23.360;2023-05-07T04:25:44;99455.63;;;12.61;62.79
79129;BME280;68529;43.286;23.360;2023-05-07T04:28:10;99453.72;;;12.65;63.15
79129;BME280;68529;43.286;23.360;2023-05-07T04:30:36;99455.94;;;12.75;62.88
79129;BME280;68529;43.286;23.360;2023-05-07T04:33:02;99459.69;;;12.92;62.76
79129;BME280;68529;43.286;23.360;2023-05-07T04:35:27;99462.53;;;13.09;62.84
79129;BME280;68529;43.286;23.360;2023-05-07T04:37:53;99454.81;;;13.24;62.70
79129;BME280;68529;43.286;23.360;2023-05-07T04:40:18;99452.47;;;13.38;62.46
79129;BME280;68529;43.286;23.360;2023-05-07T04:42:44;99458.09;;;13.51;62.53
79129;BME280;68529;43.286;23.360;2023-05-07T04:45:09;99466.59;;;13.58;62.27
79129;BME280;68529;43.286;23.360;2023-05-07T04:47:35;99464.44;;;13.67;62.47
79129;BME280;68529;43.286;23.360;2023-05-07T04:50:01;99459.72;;;13.74;62.50
79129;BME280;68529;43.286;23.360;2023-05-07T04:52:27;99463.03;;;13.79;62.70
79129;BME280;68529;43.286;23.360;2023-05-07T04:54:52;99457.53;;;13.83;63.01
79129;BME280;68529;43.286;23.360;2023-05-07T04:57:18;99449.88;;;13.97;62.81
79129;BME280;68529;43.286;23.360;2023-05-07T04:59:44;99459.44;;;14.19;62.46
79129;BME280;68529;43.286;23.360;2023-05-07T05:02:12;99460.75;;;14.29;62.30
79129;BME280;68529;43.286;23.360;2023-05-07T05:04:38;99460.78;;;14.47;62.31
79129;BME280;68529;43.286;23.360;2023-05-07T05:07:03;99468.22;;;14.77;61.56
79129;BME280;68529;43.286;23.360;2023-05-07T05:09:29;99466.06;;;15.02;61.06
79129;BME280;68529;43.286;23.360;2023-05-07T05:11:55;99473.75;;;15.25;60.73
79129;BME280;68529;43.286;23.360;2023-05-07T05:14:21;99469.41;;;15.41;60.40
79129;BME280;68529;43.286;23.360;2023-05-07T05:16:46;99467.19;;;15.51;60.35
79129;BME280;68529;43.286;23.360;2023-05-07T05:19:11;99460.47;;;15.61;60.16
79129;BME280;68529;43.286;23.360;2023-05-07T05:21:37;99459.38;;;15.82;60.03
79129;BME280;68529;43.286;23.360;2023-05-07T05:24:02;99468.31;;;15.97;59.76
79129;BME280;68529;43.286;23.360;2023-05-07T05:26:28;99460.31;;;16.14;59.45
79129;BME280;68529;43.286;23.360;2023-05-07T05:28:53;99462.22;;;16.27;58.99
79129;BME280;68529;43.286;23.360;2023-05-07T05:31:19;99460.03;;;16.36;58.62
79129;BME280;68529;43.286;23.360;2023-05-07T05:33:44;99471.22;;;16.58;58.67
79129;BME280;68529;43.286;23.360;2023-05-07T05:36:10;99467.69;;;16.73;58.32
79129;BME280;68529;43.286;23.360;2023-05-07T05:38:36;99467.69;;;16.88;57.87
79129;BME280;68529;43.286;23.360;2023-05-07T05:41:01;99467.16;;;16.98;57.82
79129;BME280;68529;43.286;23.360;2023-05-07T05:43:27;99464.94;;;16.90;57.41
79129;BME280;68529;43.286;23.360;2023-05-07T05:45:52;99463.41;;;17.02;57.36
79129;BME280;68529;43.286;23.360;2023-05-07T05:48:18;99465.78;;;17.22;57.09
79129;BME280;68529;43.286;23.360;2023-05-07T05:50:43;99470.44;;;17.32;56.69
79129;BME280;68529;43.286;23.360;2023-05-07T05:53:09;99463.47;;;17.45;56.47
79129;BME280;68529;43.286;23.360;2023-05-07T05:55:34;99458.41;;;17.57;55.94
79129;BME280;68529;43.286;23.360;2023-05-07T05:58:00;99463.03;;;17.53;56.16
79129;BME280;68529;43.286;23.360;2023-05-07T06:00:27;99459.66;;;17.65;57.16
79129;BME280;68529;43.286;23.360;2023-05-07T06:02:52;99446.59;;;17.76;56.69
79129;BME280;68529;43.286;23.360;2023-05-07T06:05:18;99452.22;;;17.86;56.92
79129;BME280;68529;43.286;23.360;2023-05-07T06:07:43;99460.22;;;18.00;57.41
79129;BME280;68529;43.286;23.360;2023-05-07T06:10:09;99456.59;;;18.01;56.64
79129;BME280;68529;43.286;23.360;2023-05-07T06:12:34;99458.97;;;18.06;56.70
79129;BME280;68529;43.286;23.360;2023-05-07T06:15:00;99464.75;;;18.12;56.43
79129;BME280;68529;43.286;23.360;2023-05-07T06:17:25;99459.00;;;18.20;56.32
79129;BME280;68529;43.286;23.360;2023-05-07T06:19:51;99461.72;;;18.18;56.76
79129;BME280;68529;43.286;23.360;2023-05-07T06:22:16;99458.31;;;18.02;55.97
79129;BME280;68529;43.286;23.360;2023-05-07T06:24:42;99465.41;;;18.01;56.35
79129;BME280;68529;43.286;23.360;2023-05-07T06:27:07;99473.22;;;18.19;56.04
79129;BME280;68529;43.286;23.360;2023-05-07T06:29:32;99473.88;;;18.22;56.68
79129;BME280;68529;43.286;23.360;2023-05-07T06:32:08;99473.69;;;18.39;56.46
79129;BME280;68529;43.286;23.360;2023-05-07T06:34:34;99468.69;;;18.49;56.05
79129;BME280;68529;43.286;23.360;2023-05-07T06:37:00;99473.72;;;18.53;55.55
79129;BME280;68529;43.286;23.360;2023-05-07T06:39:25;99465.25;;;18.61;56.11
79129;BME280;68529;43.286;23.360;2023-05-07T06:41:51;99459.78;;;18.77;55.31
79129;BME280;68529;43.286;23.360;2023-05-07T06:44:16;99463.78;;;18.84;54.95
79129;BME280;68529;43.286;23.360;2023-05-07T06:46:41;99478.38;;;18.91;54.06
79129;BME280;68529;43.286;23.360;2023-05-07T06:49:07;99464.84;;;19.08;55.09
79129;BME280;68529;43.286;23.360;2023-05-07T06:51:32;99466.50;;;19.23;55.25
79129;BME280;68529;43.286;23.360;2023-05-07T06:53:58;99462.78;;;19.26;54.92
79129;BME280;68529;43.286;23.360;2023-05-07T06:56:23;99460.31;;;19.23;54.44
79129;BME280;68529;43.286;23.360;2023-05-07T06:58:49;99470.97;;;19.23;54.41
79129;BME280;68529;43.286;23.360;2023-05-07T07:01:14;99468.81;;;19.42;54.91
79129;BME280;68529;43.286;23.360;2023-05-07T07:03:40;99468.09;;;19.52;54.08
79129;BME280;68529;43.286;23.360;2023-05-07T07:06:05;99465.88;;;19.59;54.48
79129;BME280;68529;43.286;23.360;2023-05-07T07:08:31;99456.09;;;19.59;54.21
79129;BME280;68529;43.286;23.360;2023-05-07T07:10:57;99467.81;;;19.69;53.81
79129;BME280;68529;43.286;23.360;2023-05-07T07:13:23;99465.19;;;19.95;54.24
79129;BME280;68529;43.286;23.360;2023-05-07T07:15:48;99467.94;;;19.81;52.54
79129;BME280;68529;43.286;23.360;2023-05-07T07:18:14;99471.81;;;19.50;52.47
79129;BME280;68529;43.286;23.360;2023-05-07T07:20:39;99472.16;;;19.58;53.09
79129;BME280;68529;43.286;23.360;2023-05-07T07:23:05;99474.41;;;19.76;51.87
79129;BME280;68529;43.286;23.360;2023-05-07T07:25:30;99469.34;;;19.99;53.07
79129;BME280;68529;43.286;23.360;2023-05-07T07:27:56;99469.56;;;20.33;52.20
79129;BME280;68529;43.286;23.360;2023-05-07T07:30:21;99470.19;;;20.50;51.67
79129;BME280;68529;43.286;23.360;2023-05-07T07:32:47;99468.66;;;20.71;51.66
79129;BME280;68529;43.286;23.360;2023-05-07T07:35:12;99474.31;;;20.79;49.46
79129;BME280;68529;43.286;23.360;2023-05-07T07:37:38;99470.41;;;20.96;49.35
79129;BME280;68529;43.286;23.360;2023-05-07T07:40:03;99476.75;;;21.06;49.27
79129;BME280;68529;43.286;23.360;2023-05-07T07:42:29;99471.34;;;21.07;49.74
79129;BME280;68529;43.286;23.360;2023-05-07T07:44:54;99473.44;;;21.15;49.61
79129;BME280;68529;43.286;23.360;2023-05-07T07:47:20;99474.63;;;21.34;49.74
79129;BME280;68529;43.286;23.360;2023-05-07T07:49:45;99474.09;;;21.53;49.10
79129;BME280;68529;43.286;23.360;2023-05-07T07:52:11;99467.31;;;21.49;48.19
79129;BME280;68529;43.286;23.360;2023-05-07T07:54:36;99470.50;;;21.65;47.97
79129;BME280;68529;43.286;23.360;2023-05-07T07:57:02;99478.56;;;21.76;47.76
79129;BME280;68529;43.286;23.360;2023-05-07T07:59:27;99468.13;;;21.84;47.31
79129;BME280;68529;43.286;23.360;2023-05-07T08:01:52;99467.00;;;21.99;47.24
79129;BME280;68529;43.286;23.360;2023-05-07T08:04:21;99465.44;;;22.08;46.34
79129;BME280;68529;43.286;23.360;2023-05-07T08:06:46;99463.59;;;22.20;45.59
79129;BME280;68529;43.286;23.360;2023-05-07T08:09:12;99462.63;;;22.32;45.95
79129;BME280;68529;43.286;23.360;2023-05-07T08:11:38;99454.38;;;22.46;46.12
79129;BME280;68529;43.286;23.360;2023-05-07T08:14:04;99463.59;;;22.53;46.52
79129;BME280;68529;43.286;23.360;2023-05-07T08:16:30;99457.28;;;22.65;46.16
79129;BME280;68529;43.286;23.360;2023-05-07T08:18:56;99464.47;;;22.76;46.30
79129;BME280;68529;43.286;23.360;2023-05-07T08:21:22;99452.53;;;22.80;45.91
79129;BME280;68529;43.286;23.360;2023-05-07T08:23:48;99456.53;;;22.85;45.94
79129;BME280;68529;43.286;23.360;2023-05-07T08:26:13;99457.50;;;22.95;46.46
79129;BME280;68529;43.286;23.360;2023-05-07T08:28:39;99455.59;;;23.18;45.21
79129;BME280;68529;43.286;23.360;2023-05-07T08:31:05;99460.22;;;23.27;45.12
79129;BME280;68529;43.286;23.360;2023-05-07T08:33:31;99458.38;;;23.39;45.01
79129;BME280;68529;43.286;23.360;2023-05-07T08:35:56;99446.41;;;23.43;44.15
79129;BME280;68529;43.286;23.360;2023-05-07T08:38:22;99453.41;;;23.55;43.65
79129;BME280;68529;43.286;23.360;2023-05-07T08:40:47;99444.09;;;23.70;43.43
79129;BME280;68529;43.286;23.360;2023-05-07T08:43:14;99438.06;;;23.77;44.53
79129;BME280;68529;43.286;23.360;2023-05-07T08:45:41;99448.84;;;23.66;43.62
79129;BME280;68529;43.286;23.360;2023-05-07T08:48:17;99438.84;;;23.89;44.62
79129;BME280;68529;43.286;23.360;2023-05-07T08:50:42;99439.22;;;24.05;44.67
79129;BME280;68529;43.286;23.360;2023-05-07T08:53:08;99431.56;;;24.21;44.32
79129;BME280;68529;43.286;23.360;2023-05-07T08:55:34;99432.47;;;24.31;44.09
79129;BME280;68529;43.286;23.360;2023-05-07T08:58:00;99422.03;;;24.38;44.39
79129;BME280;68529;43.286;23.360;2023-05-07T09:00:25;99427.19;;;24.51;43.69
79129;BME280;68529;43.286;23.360;2023-05-07T09:02:52;99408.53;;;24.59;43.72
79129;BME280;68529;43.286;23.360;2023-05-07T09:05:18;99418.44;;;24.58;43.79
79129;BME280;68529;43.286;23.360;2023-05-07T09:07:43;99411.63;;;24.54;44.09
79129;BME280;68529;43.286;23.360;2023-05-07T09:10:09;99408.53;;;24.68;43.37
79129;BME280;68529;43.286;23.360;2023-05-07T09:12:35;99406.34;;;24.83;43.58
79129;BME280;68529;43.286;23.360;2023-05-07T09:15:01;99416.72;;;24.97;43.82
79129;BME280;68529;43.286;23.360;2023-05-07T09:17:28;99405.13;;;25.06;43.15
79129;BME280;68529;43.286;23.360;2023-05-07T09:19:53;99403.41;;;25.05;43.50
79129;BME280;68529;43.286;23.360;2023-05-07T09:22:19;99400.03;;;25.03;42.91
79129;BME280;68529;43.286;23.360;2023-05-07T09:24:49;99401.13;;;24.81;41.97
79129;BME280;68529;43.286;23.360;2023-05-07T09:27:15;99397.34;;;25.03;43.30
79129;BME280;68529;43.286;23.360;2023-05-07T09:29:40;99396.22;;;25.15;43.37
79129;BME280;68529;43.286;23.360;2023-05-07T09:32:07;99387.84;;;25.09;41.94
79129;BME280;68529;43.286;23.360;2023-05-07T09:34:34;99382.06;;;25.23;42.93
79129;BME280;68529;43.286;23.360;2023-05-07T09:37:04;99392.09;;;25.30;41.68
79129;BME280;68529;43.286;23.360;2023-05-07T09:39:40;99376.66;;;25.32;42.23
79129;BME280;68529;43.286;23.360;2023-05-07T09:42:06;99380.50;;;25.39;42.42
79129;BME280;68529;43.286;23.360;2023-05-07T09:44:32;99372.44;;;25.49;41.47
79129;BME280;68529;43.286;23.360;2023-05-07T09:47:00;99379.50;;;25.69;42.49
79129;BME280;68529;43.286;23.360;2023-05-07T09:49:29;99374.97;;;25.70;41.01
79129;BME280;68529;43.286;23.360;2023-05-07T09:51:55;99370.31;;;25.62;41.03
79129;BME280;68529;43.286;23.360;2023-05-07T09:54:22;99365.72;;;25.82;40.97
79129;BME280;68529;43.286;23.360;2023-05-07T09:56:52;99364.97;;;25.99;40.76
79129;BME280;68529;43.286;23.360;2023-05-07T09:59:18;99363.66;;;26.03;39.96
79129;BME280;68529;43.286;23.360;2023-05-07T10:01:45;99363.94;;;26.10;39.75
79129;BME280;68529;43.286;23.360;2023-05-07T10:04:12;99359.06;;;26.13;40.28
79129;BME280;68529;43.286;23.360;2023-05-07T10:06:38;99358.88;;;26.34;40.05
79129;BME280;68529;43.286;23.360;2023-05-07T10:09:04;99364.47;;;26.13;39.35
79129;BME280;68529;43.286;23.360;2023-05-07T10:11:34;99361.66;;;26.24;38.87
79129;BME280;68529;43.286;23.360;2023-05-07T10:14:01;99351.25;;;26.29;38.84
79129;BME280;68529;43.286;23.360;2023-05-07T10:16:30;99345.56;;;25.95;37.29
79129;BME280;68529;43.286;23.360;2023-05-07T10:18:58;99351.75;;;26.05;38.73
79129;BME280;68529;43.286;23.360;2023-05-07T10:21:23;99349.47;;;26.20;39.17
79129;BME280;68529;43.286;23.360;2023-05-07T10:23:50;99340.22;;;26.23;37.53
79129;BME280;68529;43.286;23.360;2023-05-07T10:26:18;99336.72;;;26.13;38.80
79129;BME280;68529;43.286;23.360;2023-05-07T10:28:47;99336.06;;;26.38;39.22
79129;BME280;68529;43.286;23.360;2023-05-07T10:31:55;99330.75;;;26.46;39.54
79129;BME280;68529;43.286;23.360;2023-05-07T10:34:28;99329.13;;;26.53;38.58
79129;BME280;68529;43.286;23.360;2023-05-07T10:36:55;99336.16;;;26.63;38.42
79129;BME280;68529;43.286;23.360;2023-05-07T10:39:22;99326.41;;;26.63;38.48
79129;BME280;68529;43.286;23.360;2023-05-07T10:41:48;99328.53;;;26.59;38.02
79129;BME280;68529;43.286;23.360;2023-05-07T10:44:40;99308.44;;;26.53;38.25
79129;BME280;68529;43.286;23.360;2023-05-07T10:47:07;99320.41;;;26.69;38.17
79129;BME280;68529;43.286;23.360;2023-05-07T10:49:35;99315.69;;;26.71;37.66
79129;BME280;68529;43.286;23.360;2023-05-07T10:52:12;99304.31;;;26.77;38.18
79129;BME280;68529;43.286;23.360;2023-05-07T10:54:39;99306.03;;;26.95;38.33
79129;BME280;68529;43.286;23.360;2023-05-07T10:59:57;99294.13;;;26.71;35.67
79129;BME280;68529;43.286;23.360;2023-05-07T11:02:23;99300.47;;;26.34;35.97
79129;BME280;68529;43.286;23.360;2023-05-07T11:05:21;99305.41;;;26.39;38.02
79129;BME280;68529;43.286;23.360;2023-05-07T11:08:00;99298.13;;;26.67;39.19
79129;BME280;68529;43.286;23.360;2023-05-07T11:10:53;99293.53;;;26.77;37.92
79129;BME280;68529;43.286;23.360;2023-05-07T11:13:42;99292.13;;;26.73;37.30
79129;BME280;68529;43.286;23.360;2023-05-07T11:16:25;99283.22;;;26.90;36.98
79129;BME280;68529;43.286;23.360;2023-05-07T11:18:55;99282.63;;;26.96;37.09
79129;BME280;68529;43.286;23.360;2023-05-07T11:21:41;99282.50;;;27.05;37.93
79129;BME280;68529;43.286;23.360;2023-05-07T11:24:10;99279.06;;;27.13;36.32
79129;BME280;68529;43.286;23.360;2023-05-07T11:29:19;99283.66;;;27.21;36.33
79129;BME280;68529;43.286;23.360;2023-05-07T11:31:52;99274.88;;;27.18;36.15
79129;BME280;68529;43.286;23.360;2023-05-07T11:34:23;99270.78;;;27.14;36.57
79129;BME280;68529;43.286;23.360;2023-05-07T11:36:49;99271.97;;;27.12;35.48
79129;BME280;68529;43.286;23.360;2023-05-07T11:39:28;99273.84;;;26.94;34.50
79129;BME280;68529;43.286;23.360;2023-05-07T11:41:54;99276.38;;;26.95;35.96
79129;BME280;68529;43.286;23.360;2023-05-07T11:44:19;99277.66;;;27.09;35.17
79129;BME280;68529;43.286;23.360;2023-05-07T11:46:45;99274.34;;;27.15;35.17
79129;BME280;68529;43.286;23.360;2023-05-07T11:49:11;99267.97;;;27.16;35.83
79129;BME280;68529;43.286;23.360;2023-05-07T11:51:36;99274.75;;;27.28;35.74
79129;BME280;68529;43.286;23.360;2023-05-07T11:54:05;99264.59;;;27.22;35.22
79129;BME280;68529;43.286;23.360;2023-05-07T11:56:34;99266.31;;;27.05;35.32
79129;BME280;68529;43.286;23.360;2023-05-07T11:59:00;99272.06;;;27.02;35.20
79129;BME280;68529;43.286;23.360;2023-05-07T12:01:25;99266.41;;;27.13;35.28
79129;BME280;68529;43.286;23.360;2023-05-07T12:03:51;99269.94;;;27.14;35.49
79129;BME280;68529;43.286;23.360;2023-05-07T12:06:17;99267.19;;;27.06;36.10
79129;BME280;68529;43.286;23.360;2023-05-07T12:08:44;99266.34;;;26.70;34.75
79129;BME280;68529;43.286;23.360;2023-05-07T12:11:15;99264.34;;;26.54;34.56
79129;BME280;68529;43.286;23.360;2023-05-07T12:13:43;99256.63;;;26.42;34.78
79129;BME280;68529;43.286;23.360;2023-05-07T12:16:09;99257.94;;;26.38;34.46
79129;BME280;68529;43.286;23.360;2023-05-07T12:18:35;99253.78;;;26.43;35.47
79129;BME280;68529;43.286;23.360;2023-05-07T12:21:02;99260.47;;;26.39;35.64
79129;BME280;68529;43.286;23.360;2023-05-07T12:23:28;99259.09;;;26.35;35.67
79129;BME280;68529;43.286;23.360;2023-05-07T12:25:54;99257.16;;;26.45;34.87
79129;BME280;68529;43.286;23.360;2023-05-07T12:28:19;99258.66;;;26.30;34.98
79129;BME280;68529;43.286;23.360;2023-05-07T12:30:47;99249.09;;;26.45;35.77
79129;BME280;68529;43.286;23.360;2023-05-07T12:33:23;99251.31;;;26.32;34.31
79129;BME280;68529;43.286;23.360;2023-05-07T12:35:48;99251.28;;;26.15;34.56
79129;BME280;68529;43.286;23.360;2023-05-07T12:38:16;99240.03;;;26.19;35.36
79129;BME280;68529;43.286;23.360;2023-05-07T12:40:47;99243.75;;;26.18;35.07
79129;BME280;68529;43.286;23.360;2023-05-07T12:43:24;99248.84;;;26.21;35.95
79129;BME280;68529;43.286;23.360;2023-05-07T12:45:51;99247.69;;;26.24;35.36
79129;BME280;68529;43.286;23.360;2023-05-07T12:48:19;99245.81;;;25.97;35.54
79129;BME280;68529;43.286;23.360;2023-05-07T12:50:45;99234.88;;;25.71;34.60
79129;BME280;68529;43.286;23.360;2023-05-07T12:53:12;99238.66;;;25.88;35.50